^^
Grace C. Lehan Memorial Weather Station Historical Data
Daily Summary for February 18, 2021 Units:  English    Metric   Both
Daily Weekly Monthly Yearly
  High: Low: Average:
Temperature: 50 °F 44.5 °F 46.6 °F
Dew Point: 48.9 °F 42.3 °F 44 °F
Humidity: 96% 82.6% 91%
Wind Speed: 0mph 0mph 0mph
Wind Gust: 0mph - -
Wind- -
Pressure: 30.10 in 30.01 in -
Precipitation: 0.00 in    
 
 
Tabular Data for February 18, 2021
Time Temperature Dew Point Pressure Wind Wind Speed Wind Gust Humidity Rainfall Rate (Hourly) solar
00:04 48.8 °F 43.7 °F 30.10 in Calm     82.6% 0.00 in 0 W/m2
00:09 48.7 °F 43.8 °F 30.09 in Calm     83% 0.00 in 0 W/m2
00:14 48.7 °F 44 °F 30.09 in Calm     83.9% 0.00 in 0 W/m2
00:19 48.6 °F 44 °F 30.09 in Calm     84% 0.00 in 0 W/m2
00:24 48.5 °F 43.9 °F 30.09 in Calm     84% 0.00 in 0 W/m2
00:29 48.4 °F 43.9 °F 30.08 in Calm     84.3% 0.00 in 0 W/m2
00:34 48.3 °F 44 °F 30.08 in Calm     85% 0.00 in 0 W/m2
00:39 48.2 °F 43.9 °F 30.08 in Calm     85% 0.00 in 0 W/m2
00:44 48.2 °F 43.9 °F 30.08 in Calm     85% 0.00 in 0 W/m2
00:49 48 °F 43.8 °F 30.08 in Calm     85% 0.00 in 0 W/m2
00:54 47.9 °F 43.7 °F 30.08 in Calm     85.2% 0.00 in 0 W/m2
00:59 47.8 °F 43.8 °F 30.08 in Calm     85.8% 0.00 in 0 W/m2
01:04 47.7 °F 43.7 °F 30.07 in Calm     86% 0.00 in 0 W/m2
01:09 47.6 °F 43.8 °F 30.07 in Calm     86.7% 0.00 in 0 W/m2
01:14 47.5 °F 43.8 °F 30.07 in Calm     87% 0.00 in 0 W/m2
01:19 47.4 °F 43.7 °F 30.07 in Calm     87% 0.00 in 0 W/m2
01:24 47.3 °F 43.6 °F 30.07 in Calm     87% 0.00 in 0 W/m2
01:29 47.1 °F 43.4 °F 30.07 in Calm     87% 0.00 in 0 W/m2
01:34 46.9 °F 43.2 °F 30.07 in Calm     87% 0.00 in 0 W/m2
01:39 46.8 °F 43.3 °F 30.07 in Calm     87.7% 0.00 in 0 W/m2
01:44 46.7 °F 43.3 °F 30.07 in Calm     88% 0.00 in 0 W/m2
01:49 46.7 °F 43.3 °F 30.07 in Calm     88% 0.00 in 0 W/m2
01:54 46.6 °F 43.2 °F 30.07 in Calm     88% 0.00 in 0 W/m2
01:59 46.4 °F 43 °F 30.07 in Calm     88% 0.00 in 0 W/m2
02:04 46.2 °F 42.9 °F 30.07 in Calm     88% 0.00 in 0 W/m2
02:09 46.1 °F 42.7 °F 30.07 in Calm     88% 0.00 in 0 W/m2
02:14 45.9 °F 42.8 °F 30.07 in Calm     88.9% 0.00 in 0 W/m2
02:19 45.9 °F 42.8 °F 30.07 in Calm     89% 0.00 in 0 W/m2
02:24 45.8 °F 42.8 °F 30.07 in Calm     89% 0.00 in 0 W/m2
02:29 45.8 °F 42.9 °F 30.06 in Calm     89.5% 0.00 in 0 W/m2
02:34 45.7 °F 43 °F 30.06 in Calm     90% 0.00 in 0 W/m2
02:39 45.6 °F 42.9 °F 30.06 in Calm     90% 0.00 in 0 W/m2
02:44 45.6 °F 42.8 °F 30.06 in Calm     90% 0.00 in 0 W/m2
02:49 45.5 °F 42.8 °F 30.06 in Calm     90% 0.00 in 0 W/m2
02:54 45.4 °F 42.6 °F 30.06 in Calm     90% 0.00 in 0 W/m2
02:59 45.4 °F 42.7 °F 30.06 in Calm     90.2% 0.00 in 0 W/m2
03:04 45.3 °F 42.8 °F 30.05 in Calm     91% 0.00 in 0 W/m2
03:09 45.2 °F 42.7 °F 30.05 in Calm     91% 0.00 in 0 W/m2
03:14 45.1 °F 42.6 °F 30.05 in Calm     91% 0.00 in 0 W/m2
03:19 45 °F 42.5 °F 30.05 in Calm     91% 0.00 in 0 W/m2
03:24 45 °F 42.5 °F 30.05 in Calm     91% 0.00 in 0 W/m2
03:29 45 °F 42.5 °F 30.05 in Calm     91% 0.00 in 0 W/m2
03:34 45 °F 42.8 °F 30.04 in Calm     91.8% 0.00 in 0 W/m2
03:39 44.9 °F 42.5 °F 30.04 in Calm     91.3% 0.00 in 0 W/m2
03:44 44.9 °F 42.4 °F 30.04 in Calm     91% 0.00 in 0 W/m2
03:49 44.8 °F 42.4 °F 30.04 in Calm     91.4% 0.00 in 0 W/m2
03:54 44.7 °F 42.5 °F 30.04 in Calm     92% 0.00 in 0 W/m2
03:59 44.7 °F 42.5 °F 30.04 in Calm     92% 0.00 in 0 W/m2
04:00 44.7 °F 42.5 °F 30.03 in Calm     92% 0.00 in 0 W/m2
04:09 44.6 °F 42.4 °F 30.04 in Calm     92% 0.00 in 0 W/m2
04:14 44.5 °F 42.3 °F 30.04 in Calm     92% 0.00 in 0 W/m2
04:19 44.5 °F 42.3 °F 30.04 in Calm     92% 0.00 in 0 W/m2
04:24 44.5 °F 42.3 °F 30.04 in Calm     92% 0.00 in 0 W/m2
04:29 44.6 °F 42.6 °F 30.04 in Calm     92.5% 0.00 in 0 W/m2
04:34 44.8 °F 42.9 °F 30.04 in Calm     93% 0.00 in 0 W/m2
04:39 44.9 °F 43 °F 30.04 in Calm     93% 0.00 in 0 W/m2
04:44 44.8 °F 42.9 °F 30.03 in Calm     93% 0.00 in 0 W/m2
04:49 44.7 °F 42.8 °F 30.03 in Calm     93% 0.00 in 0 W/m2
04:54 44.6 °F 42.8 °F 30.03 in Calm     93% 0.00 in 0 W/m2
04:59 44.9 °F 43 °F 30.03 in Calm     93% 0.00 in 0 W/m2
05:04 45.1 °F 43.3 °F 30.02 in Calm     93.4% 0.00 in 0 W/m2
05:09 45 °F 43.1 °F 30.02 in Calm     93% 0.00 in 0 W/m2
05:14 45.1 °F 43.2 °F 30.02 in Calm     93.2% 0.00 in 0 W/m2
05:19 45.1 °F 43.2 °F 30.02 in Calm     93% 0.00 in 0 W/m2
05:24 45.2 °F 43.6 °F 30.02 in Calm     94% 0.00 in 0 W/m2
05:29 45.3 °F 43.6 °F 30.02 in Calm     94% 0.00 in 0 W/m2
05:34 45.2 °F 43.6 °F 30.02 in Calm     94% 0.00 in 0 W/m2
05:39 45.2 °F 43.5 °F 30.02 in Calm     94% 0.00 in 0 W/m2
05:44 45.2 °F 43.6 °F 30.02 in Calm     94% 0.00 in 0 W/m2
05:49 45.4 °F 43.8 °F 30.02 in Calm     94% 0.00 in 0 W/m2
05:54 45.5 °F 43.9 °F 30.02 in Calm     94.1% 0.00 in 0 W/m2
05:59 45.9 °F 44.6 °F 30.02 in Calm     95% 0.00 in 0 W/m2
06:04 46.5 °F 45.1 °F 30.02 in Calm     95% 0.00 in 0 W/m2
06:09 47.2 °F 45.8 °F 30.02 in Calm     95% 0.00 in 0 W/m2
06:14 48 °F 46.8 °F 30.02 in Calm     95.3% 0.00 in 0 W/m2
06:19 48.6 °F 47.4 °F 30.02 in Calm     95.8% 0.00 in 0 W/m2
06:24 48.9 °F 47.7 °F 30.01 in Calm     95.5% 0.00 in 0 W/m2
06:29 49 °F 47.9 °F 30.01 in Calm     95.8% 0.00 in 0 W/m2
06:34 49.1 °F 47.7 °F 30.01 in Calm     95% 0.00 in 0 W/m2
06:39 49.1 °F 47.7 °F 30.01 in Calm     95% 0.00 in 0 W/m2
06:44 48.8 °F 47.4 °F 30.01 in Calm     95% 0.00 in 0 W/m2
06:49 48.4 °F 47 °F 30.01 in Calm     95% 0.00 in 5 W/m2
06:54 48.2 °F 46.8 °F 30.01 in Calm     95% 0.00 in 9 W/m2
06:59 48.2 °F 46.9 °F 30.01 in Calm     95% 0.00 in 11 W/m2
07:04 48.5 °F 47.1 °F 30.01 in Calm     95% 0.00 in 14 W/m2
07:09 48.9 °F 47.5 °F 30.01 in Calm     95.1% 0.00 in 19 W/m2
07:14 49.2 °F 48 °F 30.01 in Calm     95.8% 0.00 in 21 W/m2
07:19 49.5 °F 48.3 °F 30.01 in Calm     95.7% 0.00 in 26 W/m2
07:24 49.7 °F 48.6 °F 30.01 in Calm     96% 0.00 in 40 W/m2
07:29 49.8 °F 48.7 °F 30.01 in Calm     96% 0.00 in 39 W/m2
07:33 50 °F 48.9 °F 30.01 in Calm     96% 0.00 in 40 W/m2
Hartford County Weather
Compliments of Weather Underground - 4 mb